Time;durP1;ratioP1;P1;durP2;ratioP2;P2;SDS_P1;SDS_P2;PMS_P1;PMS_P2;Temp;Humidity;BMP_temperature;BMP_pressure;BME280_temperature;BME280_humidity;BME280_pressure;Samples;Min_cycle;Max_cycle;Signal;HPM_P1;HPM_P2
2023/03/06 00:00:05;;;;;;;0.00;0.00;;;3.50;99.90;;;;;;5050581;28;20268;-67
2023/03/06 00:02:30;;;;;;;0.00;0.00;;;3.50;99.90;;;;;;5050682;28;20174;-67
2023/03/06 00:04:56;;;;;;;0.00;0.00;;;3.50;99.90;;;;;;5050550;28;20196;-68
2023/03/06 00:07:22;;;;;;;0.00;0.00;;;3.50;99.90;;;;;;5061320;28;20187;-68
2023/03/06 00:09:47;;;;;;;0.00;0.00;;;3.50;99.90;;;;;;5052054;28;20209;-67
2023/03/06 00:12:13;;;;;;;0.05;0.05;;;3.60;99.90;;;;;;5059535;28;20186;-67
2023/03/06 00:14:38;;;;;;;0.00;0.00;;;3.60;99.90;;;;;;5050605;28;20205;-67
2023/03/06 00:17:04;;;;;;;0.00;0.00;;;3.60;99.90;;;;;;5049899;28;20232;-68
2023/03/06 00:19:29;;;;;;;0.00;0.00;;;3.60;99.90;;;;;;5054856;28;20675;-67
2023/03/06 00:21:55;;;;;;;0.00;0.00;;;3.60;99.90;;;;;;5055540;28;20249;-68
2023/03/06 00:24:20;;;;;;;0.10;0.10;;;3.60;99.90;;;;;;5050335;28;20243;-67
2023/03/06 00:26:46;;;;;;;0.22;0.10;;;3.60;99.90;;;;;;5053191;28;20189;-68
2023/03/06 00:29:12;;;;;;;0.00;0.00;;;3.60;99.90;;;;;;5050146;28;20181;-68
2023/03/06 00:31:37;;;;;;;0.00;0.00;;;3.60;99.90;;;;;;5050347;28;20251;-68
2023/03/06 00:34:03;;;;;;;0.10;0.10;;;3.60;99.90;;;;;;5053814;28;20285;-68
2023/03/06 00:36:28;;;;;;;0.00;0.00;;;3.60;99.90;;;;;;5053930;28;20192;-68
2023/03/06 00:38:54;;;;;;;0.00;0.00;;;3.60;99.90;;;;;;5053650;28;20188;-68
2023/03/06 00:41:19;;;;;;;0.00;0.00;;;3.60;99.90;;;;;;5054146;28;20162;-68
2023/03/06 00:43:45;;;;;;;0.38;0.38;;;3.60;99.90;;;;;;5053214;28;20260;-68
2023/03/06 00:46:11;;;;;;;0.20;0.10;;;3.50;99.90;;;;;;5053662;28;20178;-67
2023/03/06 00:48:36;;;;;;;0.00;0.00;;;3.50;99.90;;;;;;5053525;28;20192;-67
2023/03/06 00:51:02;;;;;;;0.43;0.43;;;3.50;99.90;;;;;;5053629;28;20586;-67
2023/03/06 00:53:27;;;;;;;0.00;0.00;;;3.50;99.90;;;;;;5053477;28;20209;-67
2023/03/06 00:55:53;;;;;;;0.10;0.10;;;3.50;99.90;;;;;;5053574;28;20190;-68
2023/03/06 00:58:18;;;;;;;0.10;0.10;;;3.50;99.90;;;;;;5053644;28;20628;-68
2023/03/06 01:00:44;;;;;;;0.00;0.00;;;3.50;99.90;;;;;;5053197;28;20632;-68
2023/03/06 01:03:10;;;;;;;0.10;0.10;;;3.50;99.90;;;;;;5053239;28;20459;-68
2023/03/06 01:05:36;;;;;;;0.00;0.00;;;3.50;99.90;;;;;;5053536;28;20197;-68
2023/03/06 01:08:03;;;;;;;0.00;0.00;;;3.50;99.90;;;;;;5053434;28;20582;-67
2023/03/06 01:10:29;;;;;;;0.00;0.00;;;3.40;99.90;;;;;;5053152;28;20209;-68
2023/03/06 01:12:55;;;;;;;0.05;0.05;;;3.40;99.90;;;;;;5052981;28;20531;-67
2023/03/06 01:15:21;;;;;;;0.30;0.15;;;3.40;99.90;;;;;;5053441;28;20174;-68
2023/03/06 01:17:50;;;;;;;0.10;0.10;;;3.40;99.90;;;;;;5052806;28;20192;-68
2023/03/06 01:20:17;;;;;;;0.20;0.20;;;3.40;99.90;;;;;;5053199;28;20173;-68
2023/03/06 01:22:43;;;;;;;0.08;0.08;;;3.40;99.90;;;;;;5052938;28;20196;-68
2023/03/06 01:25:09;;;;;;;0.00;0.00;;;3.40;99.90;;;;;;5053078;28;20239;-68
2023/03/06 01:27:35;;;;;;;0.00;0.00;;;3.40;99.90;;;;;;5056718;28;20226;-68
2023/03/06 01:30:00;;;;;;;0.40;0.40;;;3.40;99.90;;;;;;5058484;28;20570;-68
2023/03/06 01:32:26;;;;;;;0.00;0.00;;;3.40;99.90;;;;;;5058974;28;20190;-68
2023/03/06 01:34:52;;;;;;;0.10;0.10;;;3.40;99.90;;;;;;5053251;28;20177;-68
2023/03/06 01:37:17;;;;;;;0.00;0.00;;;3.40;99.90;;;;;;5054842;28;20189;-68
2023/03/06 01:39:43;;;;;;;0.10;0.10;;;3.40;99.90;;;;;;5059637;28;20537;-68
2023/03/06 01:42:08;;;;;;;0.00;0.00;;;3.40;99.90;;;;;;5057143;28;20173;-69
2023/03/06 01:44:34;;;;;;;0.35;0.35;;;3.40;99.90;;;;;;5062124;28;20185;-68
2023/03/06 01:47:01;;;;;;;0.30;0.30;;;3.30;99.90;;;;;;5053684;28;20184;-67
2023/03/06 01:49:29;;;;;;;0.00;0.00;;;3.30;99.90;;;;;;5052459;28;20966;-68
2023/03/06 01:51:59;;;;;;;0.00;0.00;;;3.30;99.90;;;;;;5052360;28;20212;-68
2023/03/06 01:54:45;;;;;;;0.00;0.00;;;3.30;99.90;;;;;;5052680;28;20211;-68
2023/03/06 01:57:23;;;;;;;0.00;0.00;;;3.20;99.90;;;;;;5052738;28;20181;-68
2023/03/06 01:59:54;;;;;;;0.00;0.00;;;3.20;99.90;;;;;;5052781;28;20177;-68
2023/03/06 02:02:20;;;;;;;0.00;0.00;;;3.20;99.90;;;;;;5052723;28;20177;-67
2023/03/06 02:04:46;;;;;;;0.00;0.00;;;3.20;99.90;;;;;;5052364;28;20644;-68
2023/03/06 02:07:14;;;;;;;0.00;0.00;;;3.20;99.90;;;;;;5052692;28;20204;-67
2023/03/06 02:09:39;;;;;;;0.00;0.00;;;3.20;99.90;;;;;;5053353;28;20186;-67
2023/03/06 02:12:08;;;;;;;0.00;0.00;;;3.20;99.90;;;;;;5052293;28;20188;-67
2023/03/06 02:14:35;;;;;;;0.00;0.00;;;3.20;99.90;;;;;;5052305;28;20648;-67
2023/03/06 02:17:01;;;;;;;0.00;0.00;;;3.20;99.90;;;;;;5051006;28;20235;-68
2023/03/06 02:19:31;;;;;;;0.00;0.00;;;3.20;99.90;;;;;;5052422;28;20257;-68
2023/03/06 02:21:57;;;;;;;0.00;0.00;;;3.20;99.90;;;;;;5052304;28;20560;-67
2023/03/06 02:24:47;;;;;;;0.00;0.00;;;3.20;99.90;;;;;;5052287;28;20290;-67
2023/03/06 02:27:13;;;;;;;0.03;0.03;;;3.20;99.90;;;;;;5052296;28;20173;-67
2023/03/06 02:29:39;;;;;;;0.00;0.00;;;3.20;99.90;;;;;;5049322;28;20633;-67
2023/03/06 02:32:05;;;;;;;0.00;0.00;;;3.20;99.90;;;;;;5032188;28;20184;-68
2023/03/06 02:34:36;;;;;;;0.00;0.00;;;3.20;99.90;;;;;;5032118;28;20178;-68
2023/03/06 02:37:07;;;;;;;0.00;0.00;;;3.20;99.90;;;;;;5041558;28;20239;-68
2023/03/06 02:39:36;;;;;;;0.00;0.00;;;3.20;99.90;;;;;;5051585;28;20205;-67
2023/03/06 02:42:02;;;;;;;0.00;0.00;;;3.10;99.90;;;;;;5052548;28;20537;-68
2023/03/06 02:44:28;;;;;;;0.00;0.00;;;3.10;99.90;;;;;;5060563;28;20180;-68
2023/03/06 02:46:53;;;;;;;0.00;0.00;;;3.10;99.90;;;;;;5066829;28;20488;-67
2023/03/06 02:49:19;;;;;;;0.00;0.00;;;3.10;99.90;;;;;;5053428;28;20243;-68
2023/03/06 02:51:45;;;;;;;0.00;0.00;;;3.10;99.90;;;;;;5068715;28;20217;-68
2023/03/06 02:54:10;;;;;;;0.10;0.10;;;3.10;99.90;;;;;;5061161;28;20184;-68
2023/03/06 02:56:36;;;;;;;0.00;0.00;;;3.10;99.90;;;;;;5055982;28;20189;-67
2023/03/06 02:59:01;;;;;;;0.00;0.00;;;3.10;99.90;;;;;;5051353;28;20184;-68
2023/03/06 03:01:27;;;;;;;0.10;0.10;;;3.10;99.90;;;;;;5053345;28;20632;-67
2023/03/06 03:03:52;;;;;;;0.00;0.00;;;3.10;99.90;;;;;;5069321;28;20189;-67
2023/03/06 03:06:18;;;;;;;0.05;0.05;;;3.10;99.90;;;;;;5062518;28;20187;-67
2023/03/06 03:08:43;;;;;;;0.38;0.10;;;3.10;99.90;;;;;;5053750;28;20196;-67
2023/03/06 03:11:09;;;;;;;0.00;0.00;;;3.10;99.90;;;;;;5053211;28;20213;-67
2023/03/06 03:13:36;;;;;;;0.00;0.00;;;3.10;99.90;;;;;;5054094;28;20224;-67
2023/03/06 03:16:05;;;;;;;0.00;0.00;;;3.10;99.90;;;;;;5064513;28;20231;-67
2023/03/06 03:18:30;;;;;;;0.00;0.00;;;3.10;99.90;;;;;;5061227;28;20185;-67
2023/03/06 03:20:56;;;;;;;0.00;0.00;;;3.10;99.90;;;;;;5064522;28;20190;-67
2023/03/06 03:23:22;;;;;;;0.00;0.00;;;3.10;99.90;;;;;;5067243;28;20502;-67
2023/03/06 03:25:48;;;;;;;0.10;0.10;;;3.10;99.90;;;;;;5054910;28;20640;-67
2023/03/06 03:28:14;;;;;;;0.00;0.00;;;3.10;99.90;;;;;;5063685;28;20239;-68
2023/03/06 03:30:40;;;;;;;0.00;0.00;;;3.10;99.90;;;;;;5061841;28;20205;-67
2023/03/06 03:33:06;;;;;;;0.00;0.00;;;3.10;99.90;;;;;;5057081;28;20182;-68
2023/03/06 03:35:32;;;;;;;0.00;0.00;;;3.10;99.90;;;;;;5054199;28;20197;-68
2023/03/06 03:37:57;;;;;;;0.03;0.03;;;3.10;99.90;;;;;;5065421;28;20204;-67
2023/03/06 03:40:23;;;;;;;0.00;0.00;;;3.00;99.90;;;;;;5062280;28;20533;-67
2023/03/06 03:42:49;;;;;;;0.00;0.00;;;3.00;99.90;;;;;;5062551;28;20184;-68
2023/03/06 03:45:14;;;;;;;0.00;0.00;;;3.00;99.90;;;;;;5054926;28;20679;-67
2023/03/06 03:47:40;;;;;;;0.00;0.00;;;3.00;99.90;;;;;;5066077;28;20263;-68
2023/03/06 03:50:07;;;;;;;0.00;0.00;;;2.90;99.90;;;;;;5064610;28;20363;-67
2023/03/06 03:52:32;;;;;;;0.00;0.00;;;2.90;99.90;;;;;;5055542;28;20256;-67
2023/03/06 03:54:58;;;;;;;0.00;0.00;;;2.90;99.90;;;;;;5063341;28;20219;-68
2023/03/06 03:57:23;;;;;;;0.65;0.63;;;2.90;99.90;;;;;;5055687;28;20181;-68
2023/03/06 03:59:49;;;;;;;0.05;0.05;;;2.90;99.90;;;;;;5053660;28;20192;-67
2023/03/06 04:02:15;;;;;;;0.00;0.00;;;2.90;99.90;;;;;;5064698;28;20185;-68
2023/03/06 04:04:41;;;;;;;0.00;0.00;;;2.90;99.90;;;;;;5058858;28;20182;-68
2023/03/06 04:07:07;;;;;;;0.00;0.00;;;2.90;99.90;;;;;;5053219;28;20169;-68
2023/03/06 04:09:32;;;;;;;0.03;0.03;;;2.90;99.90;;;;;;5069148;28;20189;-69
2023/03/06 04:11:58;;;;;;;0.00;0.00;;;2.90;99.90;;;;;;5058217;28;20928;-68
2023/03/06 04:14:24;;;;;;;0.00;0.00;;;2.90;99.90;;;;;;5062877;28;20180;-69
2023/03/06 04:16:49;;;;;;;0.00;0.00;;;2.90;99.90;;;;;;5059249;28;20225;-69
2023/03/06 04:19:15;;;;;;;0.00;0.00;;;2.80;99.90;;;;;;5058203;28;20518;-68
2023/03/06 04:21:40;;;;;;;0.10;0.10;;;2.80;99.90;;;;;;5053691;28;20177;-69
2023/03/06 04:24:06;;;;;;;0.00;0.00;;;2.80;99.90;;;;;;5054137;28;20193;-68
2023/03/06 04:26:32;;;;;;;0.00;0.00;;;2.80;99.90;;;;;;5053698;28;20322;-67
2023/03/06 04:28:57;;;;;;;0.00;0.00;;;2.70;99.90;;;;;;5053864;28;20181;-67
2023/03/06 04:31:23;;;;;;;0.10;0.10;;;2.70;99.90;;;;;;5053084;28;20359;-69
2023/03/06 04:33:48;;;;;;;0.00;0.00;;;2.70;99.90;;;;;;5053792;28;20185;-68
2023/03/06 04:36:35;;;;;;;0.00;0.00;;;2.70;99.90;;;;;;5053716;28;20182;-68
2023/03/06 04:39:01;;;;;;;0.00;0.00;;;2.70;99.90;;;;;;5064624;28;20671;-65
2023/03/06 04:41:26;;;;;;;0.52;0.20;;;2.80;99.90;;;;;;5055428;28;20261;-66
2023/03/06 04:43:52;;;;;;;0.00;0.00;;;2.80;99.90;;;;;;5069886;28;20231;-65
2023/03/06 04:46:18;;;;;;;0.00;0.00;;;2.80;99.90;;;;;;5057605;28;20188;-66
2023/03/06 04:48:44;;;;;;;0.00;0.00;;;2.80;99.90;;;;;;5058616;28;20177;-67
2023/03/06 04:51:12;;;;;;;0.00;0.00;;;2.80;99.90;;;;;;5064433;28;20216;-63
2023/03/06 04:53:37;;;;;;;0.03;0.03;;;2.90;99.90;;;;;;5055175;28;20207;-69
2023/03/06 04:56:03;;;;;;;0.00;0.00;;;2.90;99.90;;;;;;5056624;28;20213;-66
2023/03/06 04:58:28;;;;;;;0.00;0.00;;;2.90;99.90;;;;;;5066855;28;20252;-68
2023/03/06 05:00:54;;;;;;;0.00;0.00;;;2.90;99.90;;;;;;5068025;28;20181;-69
2023/03/06 05:03:20;;;;;;;0.08;0.08;;;2.90;99.90;;;;;;5072494;28;20223;-69
2023/03/06 05:05:45;;;;;;;0.25;0.25;;;2.90;99.90;;;;;;5068814;28;20212;-69
2023/03/06 05:08:14;;;;;;;0.00;0.00;;;2.90;99.90;;;;;;5052692;28;20550;-70
2023/03/06 05:10:39;;;;;;;0.00;0.00;;;3.00;99.90;;;;;;5052304;28;20213;-70
2023/03/06 05:13:05;;;;;;;0.05;0.05;;;2.90;99.90;;;;;;5053015;28;20197;-70
2023/03/06 05:15:30;;;;;;;0.00;0.00;;;3.00;99.90;;;;;;5053275;28;20177;-70
2023/03/06 05:17:56;;;;;;;0.00;0.00;;;3.60;99.90;;;;;;5052364;28;20279;-71
2023/03/06 05:20:22;;;;;;;0.10;0.10;;;3.80;99.90;;;;;;5053165;28;20694;-72
2023/03/06 05:22:47;;;;;;;0.00;0.00;;;3.70;99.90;;;;;;5052401;28;20209;-71
2023/03/06 05:25:13;;;;;;;0.00;0.00;;;3.60;99.90;;;;;;5052958;28;20190;-70
2023/03/06 05:27:38;;;;;;;0.00;0.00;;;3.50;99.90;;;;;;5053040;28;20177;-70
2023/03/06 05:30:05;;;;;;;0.00;0.00;;;3.40;99.90;;;;;;5053189;28;20559;-71
2023/03/06 05:32:30;;;;;;;0.10;0.10;;;3.30;99.90;;;;;;5053087;28;20633;-70
2023/03/06 05:34:56;;;;;;;1.55;0.10;;;3.20;99.90;;;;;;5053225;28;20185;-71
2023/03/06 05:37:24;;;;;;;0.65;0.52;;;3.20;99.90;;;;;;5053144;28;20178;-70
2023/03/06 05:39:50;;;;;;;0.00;0.00;;;3.10;99.90;;;;;;5053177;28;20174;-71
2023/03/06 05:42:15;;;;;;;0.10;0.10;;;3.00;99.90;;;;;;5051865;28;20184;-71
2023/03/06 05:44:41;;;;;;;0.00;0.00;;;3.00;99.90;;;;;;5053035;28;20174;-70
2023/03/06 05:47:07;;;;;;;0.00;0.00;;;2.90;99.90;;;;;;5053008;28;20640;-71
2023/03/06 05:49:34;;;;;;;0.00;0.00;;;2.90;99.90;;;;;;5052825;28;20174;-71
2023/03/06 05:52:02;;;;;;;0.00;0.00;;;2.80;99.90;;;;;;5052727;28;20720;-71
2023/03/06 05:54:28;;;;;;;0.00;0.00;;;2.80;99.90;;;;;;5051453;28;20181;-71
2023/03/06 05:56:56;;;;;;;0.00;0.00;;;2.80;99.90;;;;;;5051442;28;20185;-71
2023/03/06 05:59:22;;;;;;;0.00;0.00;;;2.80;99.90;;;;;;5051286;28;20181;-70
2023/03/06 06:01:48;;;;;;;0.10;0.10;;;2.80;99.90;;;;;;5052523;28;20207;-70
2023/03/06 06:04:14;;;;;;;0.00;0.00;;;2.80;99.90;;;;;;5051094;28;20177;-71
2023/03/06 06:06:39;;;;;;;0.00;0.00;;;2.80;99.90;;;;;;5052237;28;20181;-70
2023/03/06 06:09:05;;;;;;;0.13;0.13;;;2.80;99.90;;;;;;5052673;28;20243;-70
2023/03/06 06:11:30;;;;;;;0.00;0.00;;;2.80;99.90;;;;;;5052422;28;20698;-70
2023/03/06 06:13:56;;;;;;;0.00;0.00;;;2.80;99.90;;;;;;5034640;28;20197;-70
2023/03/06 06:16:21;;;;;;;0.00;0.00;;;2.80;99.90;;;;;;5032191;28;20316;-70
2023/03/06 06:18:47;;;;;;;0.00;0.00;;;2.80;99.90;;;;;;5032418;28;20179;-70
2023/03/06 06:21:13;;;;;;;0.00;0.00;;;2.80;99.90;;;;;;5032349;28;20185;-70
2023/03/06 06:23:39;;;;;;;0.00;0.00;;;2.80;99.90;;;;;;5032241;28;20174;-70
2023/03/06 06:26:07;;;;;;;0.00;0.00;;;2.80;99.90;;;;;;5032286;28;20167;-70
2023/03/06 06:28:33;;;;;;;0.00;0.00;;;2.80;99.90;;;;;;5032116;28;20185;-70
2023/03/06 06:30:58;;;;;;;0.00;0.00;;;2.80;99.90;;;;;;5031272;28;20699;-70
2023/03/06 06:33:24;;;;;;;0.00;0.00;;;2.90;99.90;;;;;;5032302;28;20637;-69
2023/03/06 06:35:50;;;;;;;0.00;0.00;;;2.90;99.90;;;;;;5032033;28;20657;-70
2023/03/06 06:38:16;;;;;;;0.00;0.00;;;2.90;99.90;;;;;;5032210;28;20196;-71
2023/03/06 06:40:41;;;;;;;0.15;0.15;;;2.90;99.90;;;;;;5031734;28;20182;-71
2023/03/06 06:43:07;;;;;;;0.00;0.00;;;2.90;99.90;;;;;;5032044;28;20633;-71
2023/03/06 06:45:32;;;;;;;0.10;0.10;;;2.90;99.90;;;;;;5031953;28;20189;-70
2023/03/06 06:47:58;;;;;;;0.00;0.00;;;2.90;99.90;;;;;;5032093;28;20178;-71
2023/03/06 06:50:23;;;;;;;0.00;0.00;;;3.00;99.90;;;;;;5031902;28;20198;-70
2023/03/06 06:52:49;;;;;;;0.10;0.10;;;3.00;99.90;;;;;;5031933;28;20236;-70
2023/03/06 06:55:15;;;;;;;0.20;0.20;;;3.00;99.90;;;;;;5031883;28;20223;-70
2023/03/06 06:57:41;;;;;;;0.00;0.00;;;2.90;99.90;;;;;;5031390;28;20189;-70
2023/03/06 07:00:08;;;;;;;0.00;0.00;;;2.90;99.90;;;;;;5031320;28;20196;-71
2023/03/06 07:02:33;;;;;;;0.00;0.00;;;2.90;99.90;;;;;;5031167;28;20174;-70
2023/03/06 07:04:59;;;;;;;0.22;0.22;;;2.90;99.90;;;;;;5038850;28;20190;-71
2023/03/06 07:07:25;;;;;;;0.00;0.00;;;2.90;99.90;;;;;;5051271;28;20173;-70
2023/03/06 07:09:50;;;;;;;0.10;0.10;;;2.80;99.90;;;;;;5049735;28;20640;-70
2023/03/06 07:12:16;;;;;;;0.00;0.00;;;2.80;99.90;;;;;;5048407;28;20560;-70
2023/03/06 07:14:41;;;;;;;0.00;0.00;;;2.80;99.90;;;;;;5031059;28;20577;-70
2023/03/06 07:17:08;;;;;;;0.10;0.10;;;2.90;99.90;;;;;;5031046;28;20280;-71
2023/03/06 07:19:34;;;;;;;0.00;0.00;;;2.90;99.90;;;;;;5030994;28;20257;-70
2023/03/06 07:22:00;;;;;;;0.05;0.05;;;2.90;99.90;;;;;;5031127;28;20174;-70
2023/03/06 07:24:26;;;;;;;0.00;0.00;;;2.90;99.90;;;;;;5031078;28;20174;-71
2023/03/06 07:26:51;;;;;;;0.63;0.63;;;3.00;99.90;;;;;;5031093;28;20664;-71
2023/03/06 07:29:17;;;;;;;0.30;0.30;;;3.00;99.90;;;;;;5031075;28;20174;-71
2023/03/06 07:31:43;;;;;;;0.10;0.10;;;3.00;99.90;;;;;;5030905;28;20201;-71
2023/03/06 07:34:12;;;;;;;0.00;0.00;;;3.00;99.90;;;;;;5030982;28;20178;-71
2023/03/06 07:36:39;;;;;;;0.00;0.00;;;3.00;99.90;;;;;;5030779;28;20599;-70
2023/03/06 07:39:05;;;;;;;0.32;0.32;;;3.10;99.90;;;;;;5030903;28;20166;-71
2023/03/06 07:41:31;;;;;;;0.80;0.40;;;3.00;99.90;;;;;;5032810;28;20528;-71
2023/03/06 07:43:57;;;;;;;0.10;0.10;;;3.00;99.90;;;;;;5034996;28;20185;-71
2023/03/06 07:46:22;;;;;;;0.00;0.00;;;3.00;99.90;;;;;;5035023;28;20201;-70
2023/03/06 07:48:48;;;;;;;0.75;0.75;;;3.00;99.90;;;;;;5034897;28;20174;-71
2023/03/06 07:51:16;;;;;;;0.00;0.00;;;3.00;99.90;;;;;;5035370;28;20220;-71
2023/03/06 07:53:42;;;;;;;0.00;0.00;;;3.00;99.90;;;;;;5035137;28;20174;-71
2023/03/06 07:56:08;;;;;;;0.00;0.00;;;3.00;99.90;;;;;;5035363;28;20181;-71
2023/03/06 07:58:39;;;;;;;0.10;0.10;;;3.10;99.90;;;;;;5034991;28;20174;-71
2023/03/06 08:01:10;;;;;;;0.00;0.00;;;3.10;99.90;;;;;;5035236;28;20213;-71
2023/03/06 08:03:36;;;;;;;0.05;0.05;;;3.20;99.90;;;;;;5035015;28;20261;-70
2023/03/06 08:06:09;;;;;;;0.05;0.05;;;3.20;99.90;;;;;;5051246;28;20276;-71
2023/03/06 08:08:36;;;;;;;0.00;0.00;;;3.20;99.90;;;;;;5054810;28;20249;-70
2023/03/06 08:11:02;;;;;;;0.10;0.10;;;3.30;99.90;;;;;;5054693;28;20213;-71
2023/03/06 08:13:27;;;;;;;0.00;0.00;;;3.40;99.90;;;;;;5042094;28;20174;-71
2023/03/06 08:15:53;;;;;;;0.00;0.00;;;3.30;99.90;;;;;;5034694;28;20226;-70
2023/03/06 08:18:18;;;;;;;0.00;0.00;;;3.40;99.90;;;;;;5034853;28;20196;-70
2023/03/06 08:20:45;;;;;;;0.00;0.00;;;3.40;99.90;;;;;;5033507;28;20189;-71
2023/03/06 08:23:11;;;;;;;0.63;0.63;;;3.40;99.90;;;;;;5034791;28;20182;-71
2023/03/06 08:25:36;;;;;;;0.00;0.00;;;3.40;99.90;;;;;;5034653;28;20200;-71
2023/03/06 08:28:02;;;;;;;0.00;0.00;;;3.40;99.90;;;;;;5034578;28;20257;-71
2023/03/06 08:30:29;;;;;;;0.10;0.10;;;3.40;99.90;;;;;;5034512;28;20231;-71
2023/03/06 08:32:54;;;;;;;0.38;0.28;;;3.40;99.90;;;;;;5034535;28;20598;-70
2023/03/06 08:35:20;;;;;;;0.10;0.10;;;3.40;99.90;;;;;;5034418;28;20205;-70
2023/03/06 08:37:45;;;;;;;0.00;0.00;;;3.40;99.90;;;;;;5034423;28;20530;-71
2023/03/06 08:40:12;;;;;;;0.10;0.10;;;3.40;99.90;;;;;;5034506;28;20224;-71
2023/03/06 08:42:37;;;;;;;0.00;0.00;;;3.40;99.90;;;;;;5034212;28;20588;-71
2023/03/06 08:45:04;;;;;;;0.10;0.10;;;3.50;99.90;;;;;;5034469;28;20224;-70
2023/03/06 08:47:29;;;;;;;0.00;0.00;;;3.50;99.90;;;;;;5034189;28;20198;-70
2023/03/06 08:49:55;;;;;;;0.00;0.00;;;3.50;99.90;;;;;;5034294;28;20216;-71
2023/03/06 08:52:20;;;;;;;0.00;0.00;;;3.50;99.90;;;;;;5033240;28;20209;-71
2023/03/06 08:54:46;;;;;;;0.20;0.20;;;3.60;99.90;;;;;;5034311;28;20178;-70
2023/03/06 08:57:11;;;;;;;0.00;0.00;;;3.60;99.90;;;;;;5034244;28;20186;-70
2023/03/06 08:59:37;;;;;;;0.00;0.00;;;3.60;99.90;;;;;;5034062;28;20696;-70
2023/03/06 09:02:04;;;;;;;0.08;0.08;;;3.70;99.90;;;;;;5033983;28;20171;-71
2023/03/06 09:04:30;;;;;;;0.00;0.00;;;3.70;99.90;;;;;;5037499;28;20508;-70
2023/03/06 09:06:56;;;;;;;0.52;0.52;;;3.80;99.90;;;;;;5053946;28;20243;-70
2023/03/06 09:09:21;;;;;;;0.00;0.00;;;3.80;99.90;;;;;;5053751;28;20646;-69
2023/03/06 09:11:47;;;;;;;0.35;0.35;;;3.90;99.90;;;;;;5053775;28;20213;-71
2023/03/06 09:14:13;;;;;;;0.00;0.00;;;3.90;99.90;;;;;;5034853;28;20181;-71
2023/03/06 09:16:38;;;;;;;0.00;0.00;;;3.90;99.90;;;;;;5033326;28;20677;-70
2023/03/06 09:19:04;;;;;;;0.00;0.00;;;3.90;99.90;;;;;;5033853;28;20189;-71
2023/03/06 09:21:30;;;;;;;0.00;0.00;;;3.90;99.90;;;;;;5033674;28;20185;-71
2023/03/06 09:23:55;;;;;;;0.00;0.00;;;3.90;99.90;;;;;;5033782;28;20178;-71
2023/03/06 09:26:21;;;;;;;0.00;0.00;;;3.90;99.90;;;;;;5033598;28;20277;-70
2023/03/06 09:28:47;;;;;;;0.00;0.00;;;4.00;99.90;;;;;;5033602;28;20178;-71
2023/03/06 09:31:16;;;;;;;0.32;0.32;;;4.00;99.90;;;;;;5033584;28;20596;-70
2023/03/06 09:33:41;;;;;;;0.00;0.00;;;4.00;99.90;;;;;;5033323;28;20194;-70
2023/03/06 09:36:09;;;;;;;0.00;0.00;;;4.10;99.90;;;;;;5033519;28;20186;-71
2023/03/06 09:38:34;;;;;;;0.00;0.00;;;4.20;99.90;;;;;;5033311;28;20198;-71
2023/03/06 09:41:25;;;;;;;0.25;0.25;;;4.30;99.90;;;;;;5033288;28;20269;-71
2023/03/06 09:43:54;;;;;;;0.20;0.20;;;4.40;99.90;;;;;;5033443;28;20170;-71
2023/03/06 09:46:57;;;;;;;0.00;0.00;;;4.50;99.90;;;;;;5033139;28;20254;-70
2023/03/06 09:49:41;;;;;;;0.00;0.00;;;4.50;99.90;;;;;;5033192;28;20186;-71
2023/03/06 09:52:37;;;;;;;0.00;0.00;;;4.60;99.90;;;;;;5033037;28;20239;-71
2023/03/06 09:55:17;;;;;;;0.00;0.00;;;4.80;99.90;;;;;;5028493;28;20186;-70
2023/03/06 09:58:10;;;;;;;0.00;0.00;;;4.70;99.90;;;;;;5032802;28;20707;-69
2023/03/06 10:00:58;;;;;;;0.00;0.00;;;4.70;99.90;;;;;;5033033;28;20233;-70
2023/03/06 10:03:36;;;;;;;0.10;0.10;;;4.70;99.90;;;;;;5032767;28;20194;-70
2023/03/06 10:06:11;;;;;;;0.00;0.00;;;4.70;99.90;;;;;;5049188;28;20177;-70
2023/03/06 10:08:48;;;;;;;0.00;0.00;;;4.80;99.90;;;;;;5052694;28;20189;-70
2023/03/06 10:11:20;;;;;;;0.32;0.32;;;4.80;99.90;;;;;;5052649;28;20219;-70
2023/03/06 10:13:52;;;;;;;0.08;0.08;;;4.80;99.90;;;;;;5037410;28;20182;-70
2023/03/06 10:16:20;;;;;;;0.00;0.00;;;4.80;99.90;;;;;;5032456;28;20237;-71
2023/03/06 10:18:46;;;;;;;0.00;0.00;;;4.90;99.90;;;;;;5032655;28;20175;-71
2023/03/06 10:21:33;;;;;;;0.08;0.08;;;5.00;99.90;;;;;;5032695;28;20174;-70
2023/03/06 10:24:28;;;;;;;0.20;0.20;;;5.00;99.90;;;;;;5032594;28;20272;-71
2023/03/06 10:27:17;;;;;;;0.40;0.40;;;5.10;99.90;;;;;;5032397;28;20782;-71
2023/03/06 10:29:57;;;;;;;0.00;0.00;;;5.10;99.90;;;;;;5032342;28;20276;-70
2023/03/06 10:32:28;;;;;;;0.00;0.00;;;5.00;99.90;;;;;;5032529;28;20178;-70
2023/03/06 10:34:59;;;;;;;0.10;0.10;;;5.00;99.90;;;;;;5032340;28;20228;-71
2023/03/06 10:37:28;;;;;;;0.00;0.00;;;5.00;99.90;;;;;;5032276;28;20182;-71
2023/03/06 10:40:02;;;;;;;0.10;0.10;;;5.10;99.90;;;;;;5032316;28;20166;-70
2023/03/06 10:42:28;;;;;;;0.00;0.00;;;5.10;99.90;;;;;;5032129;28;20181;-71
2023/03/06 10:45:14;;;;;;;0.00;0.00;;;5.10;99.90;;;;;;5032217;28;20179;-71
2023/03/06 10:47:40;;;;;;;0.25;0.25;;;5.10;99.90;;;;;;5031896;28;20536;-71
2023/03/06 10:50:17;;;;;;;0.00;0.00;;;5.10;99.90;;;;;;5032030;28;20615;-70
2023/03/06 10:52:42;;;;;;;0.00;0.00;;;5.10;99.90;;;;;;5032124;28;20776;-71
2023/03/06 10:55:24;;;;;;;0.00;0.00;;;5.10;99.90;;;;;;5031889;28;20178;-71
2023/03/06 10:57:50;;;;;;;0.00;0.00;;;5.30;99.90;;;;;;5031834;28;20174;-70
2023/03/06 11:00:26;;;;;;;0.38;0.38;;;5.40;99.90;;;;;;5031919;28;20232;-71
2023/03/06 11:03:15;;;;;;;0.45;0.45;;;5.60;99.90;;;;;;5030425;28;20588;-70
2023/03/06 11:05:58;;;;;;;0.00;0.00;;;5.80;99.90;;;;;;5045019;28;20185;-71
2023/03/06 11:08:24;;;;;;;0.00;0.00;;;6.00;99.90;;;;;;5051700;28;20173;-71
2023/03/06 11:11:11;;;;;;;0.00;0.00;;;6.20;99.90;;;;;;5051520;28;20206;-71
2023/03/06 11:13:39;;;;;;;0.00;0.00;;;6.30;99.90;;;;;;5037475;28;20232;-71
2023/03/06 11:16:16;;;;;;;0.00;0.00;;;6.30;99.90;;;;;;5031225;28;20233;-71
2023/03/06 11:18:55;;;;;;;0.30;0.10;;;6.30;99.90;;;;;;5031451;28;20178;-71
2023/03/06 11:21:32;;;;;;;0.00;0.00;;;6.40;99.90;;;;;;5031219;28;20178;-70
2023/03/06 11:24:05;;;;;;;0.05;0.05;;;6.50;99.90;;;;;;5031450;28;20178;-71
2023/03/06 11:26:59;;;;;;;0.00;0.00;;;6.50;99.90;;;;;;5031521;28;20173;-70
2023/03/06 11:29:28;;;;;;;0.00;0.00;;;6.40;99.90;;;;;;5030652;28;20198;-70
2023/03/06 11:31:55;;;;;;;0.00;0.00;;;6.40;99.90;;;;;;5031459;28;20210;-70
2023/03/06 11:34:39;;;;;;;0.00;0.00;;;6.40;99.90;;;;;;5031391;28;20171;-69
2023/03/06 11:37:16;;;;;;;1.65;0.38;;;6.40;99.90;;;;;;5031492;28;20191;-70
2023/03/06 11:39:48;;;;;;;0.00;0.00;;;6.40;99.80;;;;;;5031298;28;20177;-70
2023/03/06 11:42:29;;;;;;;0.00;0.00;;;6.50;99.90;;;;;;5031465;28;20166;-70
2023/03/06 11:45:23;;;;;;;0.00;0.00;;;6.50;99.70;;;;;;5031514;28;20523;-70
2023/03/06 11:48:10;;;;;;;0.00;0.00;;;6.40;99.60;;;;;;5031458;28;20633;-70
2023/03/06 11:50:43;;;;;;;0.00;0.00;;;6.30;99.60;;;;;;5029878;28;20259;-70
2023/03/06 11:53:16;;;;;;;0.00;0.00;;;6.30;99.40;;;;;;5031364;28;20210;-70
2023/03/06 11:56:06;;;;;;;0.45;0.45;;;6.30;99.10;;;;;;5031030;28;20186;-70
2023/03/06 11:59:01;;;;;;;0.00;0.00;;;6.30;99.20;;;;;;5031164;28;20261;-70
2023/03/06 12:01:59;;;;;;;0.00;0.00;;;6.30;98.70;;;;;;5046594;28;20316;-70
2023/03/06 12:04:55;;;;;;;0.00;0.00;;;6.30;98.70;;;;;;5024509;28;20201;-70
2023/03/06 12:07:39;;;;;;;0.03;0.03;;;6.20;98.50;;;;;;5050940;28;20181;-70
2023/03/06 12:10:35;;;;;;;0.00;0.00;;;6.00;98.60;;;;;;5051050;28;20178;-71
2023/03/06 12:13:26;;;;;;;0.20;0.20;;;5.90;98.90;;;;;;5042214;28;20174;-70
2023/03/06 12:15:51;;;;;;;0.00;0.00;;;5.80;99.20;;;;;;5031078;28;20233;-70
2023/03/06 12:18:38;;;;;;;0.00;0.00;;;5.80;99.40;;;;;;5029954;28;20195;-71
2023/03/06 12:21:10;;;;;;;0.00;0.00;;;5.70;99.40;;;;;;5031168;28;20257;-71
2023/03/06 12:24:06;;;;;;;0.15;0.15;;;5.70;99.60;;;;;;5031052;28;20179;-70
2023/03/06 12:26:46;;;;;;;0.00;0.00;;;5.70;99.60;;;;;;5031019;28;20257;-70
2023/03/06 12:29:48;;;;;;;0.00;0.00;;;5.60;99.20;;;;;;5033881;28;20174;-71
2023/03/06 12:32:41;;;;;;;0.00;0.00;;;5.60;99.50;;;;;;5034679;28;20833;-70
2023/03/06 12:35:24;;;;;;;0.00;0.00;;;5.60;99.60;;;;;;5034456;28;20699;-71
2023/03/06 12:37:59;;;;;;;0.00;0.00;;;5.70;99.50;;;;;;5034654;28;20538;-71
2023/03/06 12:41:02;;;;;;;0.00;0.00;;;5.60;99.30;;;;;;5034553;28;20177;-71
2023/03/06 12:44:04;;;;;;;0.00;0.00;;;5.60;99.40;;;;;;5018424;28;20277;-71
2023/03/06 12:46:37;;;;;;;0.00;0.00;;;5.60;99.50;;;;;;5034322;28;20248;-71
2023/03/06 12:49:07;;;;;;;0.03;0.03;;;5.60;99.60;;;;;;5034418;28;20178;-71
2023/03/06 12:51:33;;;;;;;0.00;0.00;;;5.60;99.60;;;;;;5034274;28;20221;-71
2023/03/06 12:54:01;;;;;;;0.00;0.00;;;5.50;99.20;;;;;;5034259;28;20178;-71
2023/03/06 12:56:28;;;;;;;0.00;0.00;;;5.60;99.60;;;;;;5034150;28;20178;-71
2023/03/06 12:58:56;;;;;;;0.00;0.00;;;5.60;99.40;;;;;;5034194;28;20256;-71
2023/03/06 13:01:46;;;;;;;0.00;0.00;;;5.60;99.30;;;;;;5034096;28;20166;-72
2023/03/06 13:04:38;;;;;;;0.00;0.00;;;5.50;99.00;;;;;;5035165;28;20190;-71
2023/03/06 13:07:21;;;;;;;0.00;0.00;;;5.60;99.10;;;;;;5053982;28;20544;-71
2023/03/06 13:10:24;;;;;;;0.00;0.00;;;5.50;98.80;;;;;;5053749;28;20173;-71